sensor_id;sensor_type;location;lat;lon;timestamp;P1;P2;P0
77515;PMS5003;66627;29.424;-98.496;2024-01-06T00:00:29;0;0;
77515;PMS5003;66627;29.424;-98.496;2024-01-06T00:02:54;1;1;
77515;PMS5003;66627;29.424;-98.496;2024-01-06T00:05:20;1;1;
77515;PMS5003;66627;29.424;-98.496;2024-01-06T00:07:44;2;2;
77515;PMS5003;66627;29.424;-98.496;2024-01-06T00:10:10;2;2;
77515;PMS5003;66627;29.424;-98.496;2024-01-06T00:12:35;1;1;
77515;PMS5003;66627;29.424;-98.496;2024-01-06T00:15:00;1;1;
77515;PMS5003;66627;29.424;-98.496;2024-01-06T00:17:25;2;2;
77515;PMS5003;66627;29.424;-98.496;2024-01-06T00:19:50;2;2;
77515;PMS5003;66627;29.424;-98.496;2024-01-06T00:22:16;5;4;
77515;PMS5003;66627;29.424;-98.496;2024-01-06T00:24:41;3;2;
77515;PMS5003;66627;29.424;-98.496;2024-01-06T00:27:06;2;2;
77515;PMS5003;66627;29.424;-98.496;2024-01-06T00:29:31;2;2;
77515;PMS5003;66627;29.424;-98.496;2024-01-06T00:31:58;2;2;
77515;PMS5003;66627;29.424;-98.496;2024-01-06T00:34:21;2;2;
77515;PMS5003;66627;29.424;-98.496;2024-01-06T00:36:47;2;2;
77515;PMS5003;66627;29.424;-98.496;2024-01-06T00:39:12;2;2;
77515;PMS5003;66627;29.424;-98.496;2024-01-06T00:41:40;2;2;
77515;PMS5003;66627;29.424;-98.496;2024-01-06T00:44:02;3;1;
77515;PMS5003;66627;29.424;-98.496;2024-01-06T00:46:27;2;2;
77515;PMS5003;66627;29.424;-98.496;2024-01-06T00:48:53;1;1;
77515;PMS5003;66627;29.424;-98.496;2024-01-06T00:51:18;2;2;
77515;PMS5003;66627;29.424;-98.496;2024-01-06T00:53:44;4;1;
77515;PMS5003;66627;29.424;-98.496;2024-01-06T00:56:09;4;4;
77515;PMS5003;66627;29.424;-98.496;2024-01-06T00:58:34;4;3;
77515;PMS5003;66627;29.424;-98.496;2024-01-06T01:00:59;4;4;
77515;PMS5003;66627;29.424;-98.496;2024-01-06T01:03:25;4;4;
77515;PMS5003;66627;29.424;-98.496;2024-01-06T01:05:50;3;3;
77515;PMS5003;66627;29.424;-98.496;2024-01-06T01:08:15;4;4;
77515;PMS5003;66627;29.424;-98.496;2024-01-06T01:10:40;6;4;
77515;PMS5003;66627;29.424;-98.496;2024-01-06T01:13:05;4;3;
77515;PMS5003;66627;29.424;-98.496;2024-01-06T01:15:31;4;4;
77515;PMS5003;66627;29.424;-98.496;2024-01-06T01:17:56;4;4;
77515;PMS5003;66627;29.424;-98.496;2024-01-06T01:20:22;7;5;
77515;PMS5003;66627;29.424;-98.496;2024-01-06T01:22:47;5;5;
77515;PMS5003;66627;29.424;-98.496;2024-01-06T01:25:12;6;6;
77515;PMS5003;66627;29.424;-98.496;2024-01-06T01:27:37;6;6;
77515;PMS5003;66627;29.424;-98.496;2024-01-06T01:30:03;4;4;
77515;PMS5003;66627;29.424;-98.496;2024-01-06T01:32:28;4;4;
77515;PMS5003;66627;29.424;-98.496;2024-01-06T01:34:53;6;5;
77515;PMS5003;66627;29.424;-98.496;2024-01-06T01:37:19;4;4;
77515;PMS5003;66627;29.424;-98.496;2024-01-06T01:39:45;6;6;
77515;PMS5003;66627;29.424;-98.496;2024-01-06T01:42:10;3;3;
77515;PMS5003;66627;29.424;-98.496;2024-01-06T01:44:35;11;9;
77515;PMS5003;66627;29.424;-98.496;2024-01-06T01:47:03;5;5;
77515;PMS5003;66627;29.424;-98.496;2024-01-06T01:49:25;8;5;
77515;PMS5003;66627;29.424;-98.496;2024-01-06T01:51:51;10;7;
77515;PMS5003;66627;29.424;-98.496;2024-01-06T01:54:16;6;6;
77515;PMS5003;66627;29.424;-98.496;2024-01-06T01:56:44;7;7;
77515;PMS5003;66627;29.424;-98.496;2024-01-06T01:59:09;7;7;
77515;PMS5003;66627;29.424;-98.496;2024-01-06T02:01:33;9;8;
77515;PMS5003;66627;29.424;-98.496;2024-01-06T02:03:58;11;9;
77515;PMS5003;66627;29.424;-98.496;2024-01-06T02:06:23;10;9;
77515;PMS5003;66627;29.424;-98.496;2024-01-06T02:08:49;10;10;
77515;PMS5003;66627;29.424;-98.496;2024-01-06T02:11:14;16;15;
77515;PMS5003;66627;29.424;-98.496;2024-01-06T02:13:40;12;12;
77515;PMS5003;66627;29.424;-98.496;2024-01-06T02:16:10;12;9;
77515;PMS5003;66627;29.424;-98.496;2024-01-06T02:18:31;9;9;
77515;PMS5003;66627;29.424;-98.496;2024-01-06T02:20:57;9;9;
77515;PMS5003;66627;29.424;-98.496;2024-01-06T02:23:22;9;9;
77515;PMS5003;66627;29.424;-98.496;2024-01-06T02:25:47;7;7;
77515;PMS5003;66627;29.424;-98.496;2024-01-06T02:28:13;13;9;
77515;PMS5003;66627;29.424;-98.496;2024-01-06T02:30:40;14;12;
77515;PMS5003;66627;29.424;-98.496;2024-01-06T02:33:05;10;10;
77515;PMS5003;66627;29.424;-98.496;2024-01-06T02:35:29;13;9;
77515;PMS5003;66627;29.424;-98.496;2024-01-06T02:37:55;13;13;
77515;PMS5003;66627;29.424;-98.496;2024-01-06T02:40:20;16;13;
77515;PMS5003;66627;29.424;-98.496;2024-01-06T02:42:45;14;14;
77515;PMS5003;66627;29.424;-98.496;2024-01-06T02:45:11;16;11;
77515;PMS5003;66627;29.424;-98.496;2024-01-06T02:47:37;11;9;
77515;PMS5003;66627;29.424;-98.496;2024-01-06T02:50:02;17;16;
77515;PMS5003;66627;29.424;-98.496;2024-01-06T02:52:27;16;14;
77515;PMS5003;66627;29.424;-98.496;2024-01-06T02:54:53;15;14;
77515;PMS5003;66627;29.424;-98.496;2024-01-06T02:57:18;15;14;
77515;PMS5003;66627;29.424;-98.496;2024-01-06T02:59:43;13;13;
77515;PMS5003;66627;29.424;-98.496;2024-01-06T03:02:08;13;12;
77515;PMS5003;66627;29.424;-98.496;2024-01-06T03:04:34;13;11;
77515;PMS5003;66627;29.424;-98.496;2024-01-06T03:07:00;13;9;
77515;PMS5003;66627;29.424;-98.496;2024-01-06T03:09:25;10;10;
77515;PMS5003;66627;29.424;-98.496;2024-01-06T03:11:51;14;14;
77515;PMS5003;66627;29.424;-98.496;2024-01-06T03:14:17;9;9;
77515;PMS5003;66627;29.424;-98.496;2024-01-06T03:16:42;8;8;
77515;PMS5003;66627;29.424;-98.496;2024-01-06T03:19:07;10;10;
77515;PMS5003;66627;29.424;-98.496;2024-01-06T03:21:32;11;11;
77515;PMS5003;66627;29.424;-98.496;2024-01-06T03:23:58;12;11;
77515;PMS5003;66627;29.424;-98.496;2024-01-06T03:26:23;10;10;
77515;PMS5003;66627;29.424;-98.496;2024-01-06T03:28:50;10;10;
77515;PMS5003;66627;29.424;-98.496;2024-01-06T03:31:15;8;7;
77515;PMS5003;66627;29.424;-98.496;2024-01-06T03:33:39;10;10;
77515;PMS5003;66627;29.424;-98.496;2024-01-06T03:36:06;10;9;
77515;PMS5003;66627;29.424;-98.496;2024-01-06T03:38:30;8;8;
77515;PMS5003;66627;29.424;-98.496;2024-01-06T03:40:57;11;9;
77515;PMS5003;66627;29.424;-98.496;2024-01-06T03:43:21;13;11;
77515;PMS5003;66627;29.424;-98.496;2024-01-06T03:45:46;10;10;
77515;PMS5003;66627;29.424;-98.496;2024-01-06T03:48:11;12;12;
77515;PMS5003;66627;29.424;-98.496;2024-01-06T03:50:37;14;12;
77515;PMS5003;66627;29.424;-98.496;2024-01-06T03:53:03;19;17;
77515;PMS5003;66627;29.424;-98.496;2024-01-06T03:55:29;22;20;
77515;PMS5003;66627;29.424;-98.496;2024-01-06T03:57:53;14;14;
77515;PMS5003;66627;29.424;-98.496;2024-01-06T04:00:19;13;13;
77515;PMS5003;66627;29.424;-98.496;2024-01-06T04:02:45;14;14;
77515;PMS5003;66627;29.424;-98.496;2024-01-06T04:05:10;19;17;
77515;PMS5003;66627;29.424;-98.496;2024-01-06T04:07:36;18;18;
77515;PMS5003;66627;29.424;-98.496;2024-01-06T04:10:02;13;12;
77515;PMS5003;66627;29.424;-98.496;2024-01-06T04:12:27;6;6;
77515;PMS5003;66627;29.424;-98.496;2024-01-06T04:14:53;5;5;
77515;PMS5003;66627;29.424;-98.496;2024-01-06T04:17:18;9;7;
77515;PMS5003;66627;29.424;-98.496;2024-01-06T04:19:42;8;7;
77515;PMS5003;66627;29.424;-98.496;2024-01-06T04:22:09;8;8;
77515;PMS5003;66627;29.424;-98.496;2024-01-06T04:24:33;6;6;
77515;PMS5003;66627;29.424;-98.496;2024-01-06T04:26:58;8;8;
77515;PMS5003;66627;29.424;-98.496;2024-01-06T04:29:24;10;10;
77515;PMS5003;66627;29.424;-98.496;2024-01-06T04:31:50;27;21;
77515;PMS5003;66627;29.424;-98.496;2024-01-06T04:34:16;20;19;
77515;PMS5003;66627;29.424;-98.496;2024-01-06T04:36:40;17;14;
77515;PMS5003;66627;29.424;-98.496;2024-01-06T04:39:05;10;10;
77515;PMS5003;66627;29.424;-98.496;2024-01-06T04:41:31;10;9;
77515;PMS5003;66627;29.424;-98.496;2024-01-06T04:43:57;10;10;
77515;PMS5003;66627;29.424;-98.496;2024-01-06T04:46:22;7;7;
77515;PMS5003;66627;29.424;-98.496;2024-01-06T04:48:46;11;11;
77515;PMS5003;66627;29.424;-98.496;2024-01-06T04:51:11;10;8;
77515;PMS5003;66627;29.424;-98.496;2024-01-06T04:53:38;11;9;
77515;PMS5003;66627;29.424;-98.496;2024-01-06T04:56:04;14;12;
77515;PMS5003;66627;29.424;-98.496;2024-01-06T04:58:29;12;11;
77515;PMS5003;66627;29.424;-98.496;2024-01-06T05:00:55;12;12;
77515;PMS5003;66627;29.424;-98.496;2024-01-06T05:03:20;10;10;
77515;PMS5003;66627;29.424;-98.496;2024-01-06T05:05:47;11;11;
77515;PMS5003;66627;29.424;-98.496;2024-01-06T05:08:11;9;9;
77515;PMS5003;66627;29.424;-98.496;2024-01-06T05:10:37;10;10;
77515;PMS5003;66627;29.424;-98.496;2024-01-06T05:13:01;12;11;
77515;PMS5003;66627;29.424;-98.496;2024-01-06T05:15:27;14;13;
77515;PMS5003;66627;29.424;-98.496;2024-01-06T05:17:53;10;10;
77515;PMS5003;66627;29.424;-98.496;2024-01-06T05:20:18;13;12;
77515;PMS5003;66627;29.424;-98.496;2024-01-06T05:22:42;11;11;
77515;PMS5003;66627;29.424;-98.496;2024-01-06T05:25:08;11;9;
77515;PMS5003;66627;29.424;-98.496;2024-01-06T05:27:33;12;10;
77515;PMS5003;66627;29.424;-98.496;2024-01-06T05:29:59;15;15;
77515;PMS5003;66627;29.424;-98.496;2024-01-06T05:32:25;12;12;
77515;PMS5003;66627;29.424;-98.496;2024-01-06T05:34:50;16;16;
77515;PMS5003;66627;29.424;-98.496;2024-01-06T05:37:15;26;21;
77515;PMS5003;66627;29.424;-98.496;2024-01-06T05:39:40;24;20;
77515;PMS5003;66627;29.424;-98.496;2024-01-06T05:42:06;26;22;
77515;PMS5003;66627;29.424;-98.496;2024-01-06T05:44:34;18;17;
77515;PMS5003;66627;29.424;-98.496;2024-01-06T05:46:58;15;14;
77515;PMS5003;66627;29.424;-98.496;2024-01-06T05:49:23;12;11;
77515;PMS5003;66627;29.424;-98.496;2024-01-06T05:51:48;13;12;
77515;PMS5003;66627;29.424;-98.496;2024-01-06T05:54:14;12;12;
77515;PMS5003;66627;29.424;-98.496;2024-01-06T05:56:40;12;12;
77515;PMS5003;66627;29.424;-98.496;2024-01-06T05:59:05;12;12;
77515;PMS5003;66627;29.424;-98.496;2024-01-06T06:01:32;14;12;
77515;PMS5003;66627;29.424;-98.496;2024-01-06T06:03:56;12;10;
77515;PMS5003;66627;29.424;-98.496;2024-01-06T06:06:21;13;13;
77515;PMS5003;66627;29.424;-98.496;2024-01-06T06:08:46;13;12;
77515;PMS5003;66627;29.424;-98.496;2024-01-06T06:11:13;12;12;
77515;PMS5003;66627;29.424;-98.496;2024-01-06T06:13:37;11;11;
77515;PMS5003;66627;29.424;-98.496;2024-01-06T06:16:03;14;14;
77515;PMS5003;66627;29.424;-98.496;2024-01-06T06:18:28;15;11;
77515;PMS5003;66627;29.424;-98.496;2024-01-06T06:20:54;11;9;
77515;PMS5003;66627;29.424;-98.496;2024-01-06T06:23:18;14;13;
77515;PMS5003;66627;29.424;-98.496;2024-01-06T06:25:44;14;13;
77515;PMS5003;66627;29.424;-98.496;2024-01-06T06:28:10;13;13;
77515;PMS5003;66627;29.424;-98.496;2024-01-06T06:30:35;12;12;
77515;PMS5003;66627;29.424;-98.496;2024-01-06T06:33:01;17;14;
77515;PMS5003;66627;29.424;-98.496;2024-01-06T06:35:27;12;11;
77515;PMS5003;66627;29.424;-98.496;2024-01-06T06:37:52;15;13;
77515;PMS5003;66627;29.424;-98.496;2024-01-06T06:40:17;15;14;
77515;PMS5003;66627;29.424;-98.496;2024-01-06T06:42:42;18;15;
77515;PMS5003;66627;29.424;-98.496;2024-01-06T06:45:09;13;13;
77515;PMS5003;66627;29.424;-98.496;2024-01-06T06:47:33;14;13;
77515;PMS5003;66627;29.424;-98.496;2024-01-06T06:49:59;16;13;
77515;PMS5003;66627;29.424;-98.496;2024-01-06T06:52:25;14;14;
77515;PMS5003;66627;29.424;-98.496;2024-01-06T06:54:50;12;12;
77515;PMS5003;66627;29.424;-98.496;2024-01-06T06:57:15;13;13;
77515;PMS5003;66627;29.424;-98.496;2024-01-06T06:59:41;15;13;
77515;PMS5003;66627;29.424;-98.496;2024-01-06T07:02:07;14;12;
77515;PMS5003;66627;29.424;-98.496;2024-01-06T07:04:33;14;14;
77515;PMS5003;66627;29.424;-98.496;2024-01-06T07:06:57;13;13;
77515;PMS5003;66627;29.424;-98.496;2024-01-06T07:09:23;11;11;
77515;PMS5003;66627;29.424;-98.496;2024-01-06T07:11:49;13;13;
77515;PMS5003;66627;29.424;-98.496;2024-01-06T07:14:14;15;15;
77515;PMS5003;66627;29.424;-98.496;2024-01-06T07:16:39;13;13;
77515;PMS5003;66627;29.424;-98.496;2024-01-06T07:19:06;15;15;
77515;PMS5003;66627;29.424;-98.496;2024-01-06T07:21:30;21;20;
77515;PMS5003;66627;29.424;-98.496;2024-01-06T07:23:56;16;13;
77515;PMS5003;66627;29.424;-98.496;2024-01-06T07:26:21;24;20;
77515;PMS5003;66627;29.424;-98.496;2024-01-06T07:28:48;16;16;
77515;PMS5003;66627;29.424;-98.496;2024-01-06T07:31:12;15;12;
77515;PMS5003;66627;29.424;-98.496;2024-01-06T07:33:37;14;14;
77515;PMS5003;66627;29.424;-98.496;2024-01-06T07:36:04;24;22;
77515;PMS5003;66627;29.424;-98.496;2024-01-06T07:38:29;15;13;
77515;PMS5003;66627;29.424;-98.496;2024-01-06T07:40:55;14;13;
77515;PMS5003;66627;29.424;-98.496;2024-01-06T07:43:20;14;14;
77515;PMS5003;66627;29.424;-98.496;2024-01-06T07:45:46;17;15;
77515;PMS5003;66627;29.424;-98.496;2024-01-06T07:48:12;15;15;
77515;PMS5003;66627;29.424;-98.496;2024-01-06T07:50:37;16;15;
77515;PMS5003;66627;29.424;-98.496;2024-01-06T07:53:03;16;14;
77515;PMS5003;66627;29.424;-98.496;2024-01-06T07:55:29;14;12;
77515;PMS5003;66627;29.424;-98.496;2024-01-06T07:57:54;12;12;
77515;PMS5003;66627;29.424;-98.496;2024-01-06T08:00:20;12;11;
77515;PMS5003;66627;29.424;-98.496;2024-01-06T08:02:45;18;15;
77515;PMS5003;66627;29.424;-98.496;2024-01-06T08:05:12;14;14;
77515;PMS5003;66627;29.424;-98.496;2024-01-06T08:07:37;15;12;
77515;PMS5003;66627;29.424;-98.496;2024-01-06T08:10:04;12;12;
77515;PMS5003;66627;29.424;-98.496;2024-01-06T08:12:28;16;15;
77515;PMS5003;66627;29.424;-98.496;2024-01-06T08:14:53;11;11;
77515;PMS5003;66627;29.424;-98.496;2024-01-06T08:17:18;14;13;
77515;PMS5003;66627;29.424;-98.496;2024-01-06T08:19:45;14;11;
77515;PMS5003;66627;29.424;-98.496;2024-01-06T08:22:08;15;13;
77515;PMS5003;66627;29.424;-98.496;2024-01-06T08:24:33;9;8;
77515;PMS5003;66627;29.424;-98.496;2024-01-06T08:26:58;10;10;
77515;PMS5003;66627;29.424;-98.496;2024-01-06T08:29:26;11;10;
77515;PMS5003;66627;29.424;-98.496;2024-01-06T08:31:50;5;5;
77515;PMS5003;66627;29.424;-98.496;2024-01-06T08:34:15;7;7;
77515;PMS5003;66627;29.424;-98.496;2024-01-06T08:36:41;7;7;
77515;PMS5003;66627;29.424;-98.496;2024-01-06T08:39:07;6;6;
77515;PMS5003;66627;29.424;-98.496;2024-01-06T08:41:32;4;4;
77515;PMS5003;66627;29.424;-98.496;2024-01-06T08:43:58;5;5;
77515;PMS5003;66627;29.424;-98.496;2024-01-06T08:46:23;4;4;
77515;PMS5003;66627;29.424;-98.496;2024-01-06T08:48:49;5;5;
77515;PMS5003;66627;29.424;-98.496;2024-01-06T08:51:13;5;5;
77515;PMS5003;66627;29.424;-98.496;2024-01-06T08:53:38;5;5;
77515;PMS5003;66627;29.424;-98.496;2024-01-06T08:56:04;6;6;
77515;PMS5003;66627;29.424;-98.496;2024-01-06T08:58:30;7;7;
77515;PMS5003;66627;29.424;-98.496;2024-01-06T09:00:56;8;8;
77515;PMS5003;66627;29.424;-98.496;2024-01-06T09:03:20;6;6;
77515;PMS5003;66627;29.424;-98.496;2024-01-06T09:05:46;7;7;
77515;PMS5003;66627;29.424;-98.496;2024-01-06T09:08:11;7;6;
77515;PMS5003;66627;29.424;-98.496;2024-01-06T09:10:36;6;6;
77515;PMS5003;66627;29.424;-98.496;2024-01-06T09:13:01;8;8;
77515;PMS5003;66627;29.424;-98.496;2024-01-06T09:15:27;9;8;
77515;PMS5003;66627;29.424;-98.496;2024-01-06T09:17:53;10;8;
77515;PMS5003;66627;29.424;-98.496;2024-01-06T09:20:19;10;7;
77515;PMS5003;66627;29.424;-98.496;2024-01-06T09:22:43;10;9;
77515;PMS5003;66627;29.424;-98.496;2024-01-06T09:25:08;9;8;
77515;PMS5003;66627;29.424;-98.496;2024-01-06T09:27:33;5;5;
77515;PMS5003;66627;29.424;-98.496;2024-01-06T09:29:59;8;8;
77515;PMS5003;66627;29.424;-98.496;2024-01-06T09:32:25;7;7;
77515;PMS5003;66627;29.424;-98.496;2024-01-06T09:34:51;6;6;
77515;PMS5003;66627;29.424;-98.496;2024-01-06T09:37:15;6;6;
77515;PMS5003;66627;29.424;-98.496;2024-01-06T09:39:40;8;6;
77515;PMS5003;66627;29.424;-98.496;2024-01-06T09:42:07;7;7;
77515;PMS5003;66627;29.424;-98.496;2024-01-06T09:44:32;7;6;
77515;PMS5003;66627;29.424;-98.496;2024-01-06T09:46:57;7;7;
77515;PMS5003;66627;29.424;-98.496;2024-01-06T09:49:22;6;6;
77515;PMS5003;66627;29.424;-98.496;2024-01-06T09:51:47;7;6;
77515;PMS5003;66627;29.424;-98.496;2024-01-06T09:54:12;10;8;
77515;PMS5003;66627;29.424;-98.496;2024-01-06T09:56:39;9;7;
77515;PMS5003;66627;29.424;-98.496;2024-01-06T09:59:04;7;7;
77515;PMS5003;66627;29.424;-98.496;2024-01-06T10:01:29;7;7;
77515;PMS5003;66627;29.424;-98.496;2024-01-06T10:03:55;8;8;
77515;PMS5003;66627;29.424;-98.496;2024-01-06T10:06:20;12;9;
77515;PMS5003;66627;29.424;-98.496;2024-01-06T10:08:47;9;8;
77515;PMS5003;66627;29.424;-98.496;2024-01-06T10:11:10;6;6;
77515;PMS5003;66627;29.424;-98.496;2024-01-06T10:13:36;8;8;
77515;PMS5003;66627;29.424;-98.496;2024-01-06T10:16:01;10;9;
77515;PMS5003;66627;29.424;-98.496;2024-01-06T10:18:26;8;8;
77515;PMS5003;66627;29.424;-98.496;2024-01-06T10:20:52;8;8;
77515;PMS5003;66627;29.424;-98.496;2024-01-06T10:23:17;8;8;
77515;PMS5003;66627;29.424;-98.496;2024-01-06T10:25:43;11;11;
77515;PMS5003;66627;29.424;-98.496;2024-01-06T10:28:11;6;6;
77515;PMS5003;66627;29.424;-98.496;2024-01-06T10:30:34;9;9;
77515;PMS5003;66627;29.424;-98.496;2024-01-06T10:32:59;11;9;
77515;PMS5003;66627;29.424;-98.496;2024-01-06T10:35:24;10;9;
77515;PMS5003;66627;29.424;-98.496;2024-01-06T10:37:51;8;7;
77515;PMS5003;66627;29.424;-98.496;2024-01-06T10:40:15;8;6;
77515;PMS5003;66627;29.424;-98.496;2024-01-06T10:42:42;8;8;
77515;PMS5003;66627;29.424;-98.496;2024-01-06T10:45:06;8;7;
77515;PMS5003;66627;29.424;-98.496;2024-01-06T10:47:31;10;10;
77515;PMS5003;66627;29.424;-98.496;2024-01-06T10:49:56;9;7;
77515;PMS5003;66627;29.424;-98.496;2024-01-06T10:52:21;9;9;
77515;PMS5003;66627;29.424;-98.496;2024-01-06T10:54:47;10;6;
77515;PMS5003;66627;29.424;-98.496;2024-01-06T10:57:13;8;7;
77515;PMS5003;66627;29.424;-98.496;2024-01-06T10:59:37;7;7;
77515;PMS5003;66627;29.424;-98.496;2024-01-06T11:02:02;6;6;
77515;PMS5003;66627;29.424;-98.496;2024-01-06T11:04:28;6;6;
77515;PMS5003;66627;29.424;-98.496;2024-01-06T11:06:52;6;6;
77515;PMS5003;66627;29.424;-98.496;2024-01-06T11:09:19;7;7;
77515;PMS5003;66627;29.424;-98.496;2024-01-06T11:11:43;9;9;
77515;PMS5003;66627;29.424;-98.496;2024-01-06T11:14:19;9;8;
77515;PMS5003;66627;29.424;-98.496;2024-01-06T11:16:34;7;7;
77515;PMS5003;66627;29.424;-98.496;2024-01-06T11:19:00;7;7;
77515;PMS5003;66627;29.424;-98.496;2024-01-06T11:21:26;9;7;
77515;PMS5003;66627;29.424;-98.496;2024-01-06T11:26:15;11;8;
77515;PMS5003;66627;29.424;-98.496;2024-01-06T11:28:44;6;5;
77515;PMS5003;66627;29.424;-98.496;2024-01-06T11:31:07;9;5;
77515;PMS5003;66627;29.424;-98.496;2024-01-06T11:33:31;7;7;
77515;PMS5003;66627;29.424;-98.496;2024-01-06T11:36:00;7;7;
77515;PMS5003;66627;29.424;-98.496;2024-01-06T11:38:24;9;6;
77515;PMS5003;66627;29.424;-98.496;2024-01-06T11:40:47;6;6;
77515;PMS5003;66627;29.424;-98.496;2024-01-06T11:43:13;9;9;
77515;PMS5003;66627;29.424;-98.496;2024-01-06T11:45:38;10;10;
77515;PMS5003;66627;29.424;-98.496;2024-01-06T11:48:04;17;15;
77515;PMS5003;66627;29.424;-98.496;2024-01-06T11:50:29;12;12;
77515;PMS5003;66627;29.424;-98.496;2024-01-06T11:52:55;12;12;
77515;PMS5003;66627;29.424;-98.496;2024-01-06T11:55:21;16;14;
77515;PMS5003;66627;29.424;-98.496;2024-01-06T11:57:45;15;13;
77515;PMS5003;66627;29.424;-98.496;2024-01-06T12:00:11;11;11;
77515;PMS5003;66627;29.424;-98.496;2024-01-06T12:02:36;9;9;
77515;PMS5003;66627;29.424;-98.496;2024-01-06T12:05:01;12;11;
77515;PMS5003;66627;29.424;-98.496;2024-01-06T12:07:26;11;10;
77515;PMS5003;66627;29.424;-98.496;2024-01-06T12:12:17;9;9;
77515;PMS5003;66627;29.424;-98.496;2024-01-06T12:14:44;10;10;
77515;PMS5003;66627;29.424;-98.496;2024-01-06T12:17:09;11;10;
77515;PMS5003;66627;29.424;-98.496;2024-01-06T12:19:33;9;9;
77515;PMS5003;66627;29.424;-98.496;2024-01-06T12:21:59;10;8;
77515;PMS5003;66627;29.424;-98.496;2024-01-06T12:24:26;12;12;
77515;PMS5003;66627;29.424;-98.496;2024-01-06T12:26:49;8;8;
77515;PMS5003;66627;29.424;-98.496;2024-01-06T12:29:17;10;9;
77515;PMS5003;66627;29.424;-98.496;2024-01-06T12:31:42;14;12;
77515;PMS5003;66627;29.424;-98.496;2024-01-06T12:34:05;9;9;
77515;PMS5003;66627;29.424;-98.496;2024-01-06T12:36:31;12;12;
77515;PMS5003;66627;29.424;-98.496;2024-01-06T12:38:57;11;10;
77515;PMS5003;66627;29.424;-98.496;2024-01-06T12:41:22;10;10;
77515;PMS5003;66627;29.424;-98.496;2024-01-06T12:43:49;11;10;
77515;PMS5003;66627;29.424;-98.496;2024-01-06T12:46:14;9;9;
77515;PMS5003;66627;29.424;-98.496;2024-01-06T12:48:38;8;8;
77515;PMS5003;66627;29.424;-98.496;2024-01-06T12:51:05;10;10;
77515;PMS5003;66627;29.424;-98.496;2024-01-06T12:53:29;9;9;
77515;PMS5003;66627;29.424;-98.496;2024-01-06T12:55:56;12;12;
77515;PMS5003;66627;29.424;-98.496;2024-01-06T12:58:21;11;11;
77515;PMS5003;66627;29.424;-98.496;2024-01-06T13:00:46;13;11;
77515;PMS5003;66627;29.424;-98.496;2024-01-06T13:03:11;10;10;
77515;PMS5003;66627;29.424;-98.496;2024-01-06T13:05:35;9;9;
77515;PMS5003;66627;29.424;-98.496;2024-01-06T13:08:01;10;10;
77515;PMS5003;66627;29.424;-98.496;2024-01-06T13:10:26;14;14;
77515;PMS5003;66627;29.424;-98.496;2024-01-06T13:15:18;13;11;
77515;PMS5003;66627;29.424;-98.496;2024-01-06T13:17:44;12;12;
77515;PMS5003;66627;29.424;-98.496;2024-01-06T13:20:08;14;14;
77515;PMS5003;66627;29.424;-98.496;2024-01-06T13:22:33;16;16;
77515;PMS5003;66627;29.424;-98.496;2024-01-06T13:24:58;19;19;
77515;PMS5003;66627;29.424;-98.496;2024-01-06T13:27:24;15;15;
77515;PMS5003;66627;29.424;-98.496;2024-01-06T13:29:51;15;15;
77515;PMS5003;66627;29.424;-98.496;2024-01-06T13:32:14;16;16;
77515;PMS5003;66627;29.424;-98.496;2024-01-06T13:34:39;14;14;
77515;PMS5003;66627;29.424;-98.496;2024-01-06T13:37:06;15;14;
77515;PMS5003;66627;29.424;-98.496;2024-01-06T13:39:31;11;11;
77515;PMS5003;66627;29.424;-98.496;2024-01-06T13:41:55;10;10;
77515;PMS5003;66627;29.424;-98.496;2024-01-06T13:44:23;14;13;
77515;PMS5003;66627;29.424;-98.496;2024-01-06T13:46:46;12;11;
77515;PMS5003;66627;29.424;-98.496;2024-01-06T13:49:11;12;11;
77515;PMS5003;66627;29.424;-98.496;2024-01-06T13:51:36;9;8;
77515;PMS5003;66627;29.424;-98.496;2024-01-06T13:54:02;10;8;
77515;PMS5003;66627;29.424;-98.496;2024-01-06T13:56:28;15;13;
77515;PMS5003;66627;29.424;-98.496;2024-01-06T13:58:53;12;10;
77515;PMS5003;66627;29.424;-98.496;2024-01-06T14:01:18;9;9;
77515;PMS5003;66627;29.424;-98.496;2024-01-06T14:03:44;13;13;
77515;PMS5003;66627;29.424;-98.496;2024-01-06T14:06:08;9;9;
77515;PMS5003;66627;29.424;-98.496;2024-01-06T14:08:34;16;15;
77515;PMS5003;66627;29.424;-98.496;2024-01-06T14:10:59;13;13;
77515;PMS5003;66627;29.424;-98.496;2024-01-06T14:13:25;20;16;
77515;PMS5003;66627;29.424;-98.496;2024-01-06T14:15:50;20;20;
77515;PMS5003;66627;29.424;-98.496;2024-01-06T14:18:16;21;20;
77515;PMS5003;66627;29.424;-98.496;2024-01-06T14:20:40;31;23;
77515;PMS5003;66627;29.424;-98.496;2024-01-06T14:23:07;29;24;
77515;PMS5003;66627;29.424;-98.496;2024-01-06T14:25:32;26;24;
77515;PMS5003;66627;29.424;-98.496;2024-01-06T14:27:59;22;21;
77515;PMS5003;66627;29.424;-98.496;2024-01-06T14:30:23;21;18;
77515;PMS5003;66627;29.424;-98.496;2024-01-06T14:32:48;20;20;
77515;PMS5003;66627;29.424;-98.496;2024-01-06T14:35:13;17;16;
77515;PMS5003;66627;29.424;-98.496;2024-01-06T14:37:39;16;13;
77515;PMS5003;66627;29.424;-98.496;2024-01-06T14:40:05;14;14;
77515;PMS5003;66627;29.424;-98.496;2024-01-06T14:42:31;14;12;
77515;PMS5003;66627;29.424;-98.496;2024-01-06T14:44:56;11;11;
77515;PMS5003;66627;29.424;-98.496;2024-01-06T14:47:22;13;13;
77515;PMS5003;66627;29.424;-98.496;2024-01-06T14:49:47;18;18;
77515;PMS5003;66627;29.424;-98.496;2024-01-06T14:52:13;14;14;
77515;PMS5003;66627;29.424;-98.496;2024-01-06T14:54:38;12;11;
77515;PMS5003;66627;29.424;-98.496;2024-01-06T14:57:04;9;9;
77515;PMS5003;66627;29.424;-98.496;2024-01-06T14:59:29;14;12;
77515;PMS5003;66627;29.424;-98.496;2024-01-06T15:02:01;13;13;
77515;PMS5003;66627;29.424;-98.496;2024-01-06T15:04:19;12;12;
77515;PMS5003;66627;29.424;-98.496;2024-01-06T15:06:46;12;9;
77515;PMS5003;66627;29.424;-98.496;2024-01-06T15:09:10;11;9;
77515;PMS5003;66627;29.424;-98.496;2024-01-06T15:11:37;10;10;
77515;PMS5003;66627;29.424;-98.496;2024-01-06T15:14:02;9;9;
77515;PMS5003;66627;29.424;-98.496;2024-01-06T15:16:26;10;10;
77515;PMS5003;66627;29.424;-98.496;2024-01-06T15:18:53;10;9;
77515;PMS5003;66627;29.424;-98.496;2024-01-06T15:21:18;8;8;
77515;PMS5003;66627;29.424;-98.496;2024-01-06T15:23:43;9;9;
77515;PMS5003;66627;29.424;-98.496;2024-01-06T15:26:08;8;8;
77515;PMS5003;66627;29.424;-98.496;2024-01-06T15:28:34;9;9;
77515;PMS5003;66627;29.424;-98.496;2024-01-06T15:30:59;9;9;
77515;PMS5003;66627;29.424;-98.496;2024-01-06T15:33:24;7;7;
77515;PMS5003;66627;29.424;-98.496;2024-01-06T15:35:49;9;9;
77515;PMS5003;66627;29.424;-98.496;2024-01-06T15:38:15;7;7;
77515;PMS5003;66627;29.424;-98.496;2024-01-06T15:40:41;9;9;
77515;PMS5003;66627;29.424;-98.496;2024-01-06T15:43:07;6;6;
77515;PMS5003;66627;29.424;-98.496;2024-01-06T15:45:31;9;7;
77515;PMS5003;66627;29.424;-98.496;2024-01-06T15:47:58;8;8;
77515;PMS5003;66627;29.424;-98.496;2024-01-06T15:50:22;7;7;
77515;PMS5003;66627;29.424;-98.496;2024-01-06T15:52:48;7;7;